Time;durP1;ratioP1;P1;durP2;ratioP2;P2;SDS_P1;SDS_P2;PMS_P1;PMS_P2;Temp;Humidity;BMP_temperature;BMP_pressure;BME280_temperature;BME280_humidity;BME280_pressure;Samples;Min_cycle;Max_cycle;Signal;HPM_P1;HPM_P2
2022/07/28 00:00:56;;;;;;;5.62;2.78;;;;;;;25.70;48.11;97994.75;4487870;31;20163;-81
2022/07/28 00:03:23;;;;;;;4.75;2.67;;;;;;;25.52;48.23;97993.03;4487595;32;20108;-81
2022/07/28 00:05:50;;;;;;;4.10;2.40;;;;;;;26.30;46.14;97992.66;4487956;32;20101;-81
2022/07/28 00:08:17;;;;;;;5.35;2.67;;;;;;;27.66;43.41;97980.22;4486733;32;20144;-81
2022/07/28 00:10:44;;;;;;;5.50;2.70;;;;;;;27.80;43.72;97990.06;4487586;31;20597;-82
2022/07/28 00:13:11;;;;;;;6.10;2.55;;;;;;;28.58;41.09;97996.91;4487895;31;20101;-81
2022/07/28 00:15:39;;;;;;;6.47;2.90;;;;;;;29.00;40.66;97992.88;4487783;32;20096;-81
2022/07/28 00:18:06;;;;;;;4.85;2.58;;;;;;;28.76;40.50;97992.09;4487583;31;20097;-82
2022/07/28 00:20:33;;;;;;;5.93;2.50;;;;;;;28.83;39.99;97986.06;4487801;32;20101;-81
2022/07/28 00:23:00;;;;;;;4.68;2.50;;;;;;;27.92;41.78;97988.66;4487933;31;20088;-81
2022/07/28 00:25:27;;;;;;;5.40;2.58;;;;;;;26.85;44.38;97989.28;4487400;31;20458;-82
2022/07/28 00:27:54;;;;;;;4.80;2.40;;;;;;;27.66;42.66;97996.13;4487866;31;20575;-81
2022/07/28 00:30:21;;;;;;;5.03;2.62;;;;;;;28.05;41.57;97998.66;4487869;31;20486;-81
2022/07/28 00:32:48;;;;;;;4.93;2.50;;;;;;;28.99;38.71;97993.88;4487423;31;20424;-82
2022/07/28 00:35:15;;;;;;;6.68;3.58;;;;;;;28.16;40.71;97994.78;4487637;32;20821;-81
2022/07/28 00:37:54;;;;;;;4.40;2.30;;;;;;;28.12;41.51;97988.19;4487849;31;20472;-81
2022/07/28 00:41:09;;;;;;;7.35;2.80;;;;;;;28.37;42.11;97994.13;4487790;31;20163;-81
2022/07/28 00:43:08;;;;;;;5.37;2.20;;;;;;;28.82;41.65;97995.87;4487743;31;20167;-81
2022/07/28 00:45:35;;;;;;;6.37;2.62;;;;;;;28.37;40.54;97996.78;4487110;31;20399;-82
2022/07/28 00:48:02;;;;;;;4.85;2.40;;;;;;;27.68;41.57;97994.13;4487506;31;20120;-81
2022/07/28 00:50:30;;;;;;;5.20;2.50;;;;;;;24.90;47.00;97991.59;4486548;32;20439;-81
2022/07/28 00:52:57;;;;;;;5.75;2.55;;;;;;;24.08;49.37;97996.25;4487357;31;20144;-81
2022/07/28 00:55:24;;;;;;;6.20;2.50;;;;;;;23.77;50.69;97995.81;4487553;31;20155;-81
2022/07/28 00:57:51;;;;;;;4.70;2.58;;;;;;;23.56;51.09;97988.16;4487549;31;20100;-81
2022/07/28 01:00:18;;;;;;;5.47;2.47;;;;;;;23.15;52.99;97976.31;4487097;32;20457;-81
2022/07/28 01:02:45;;;;;;;6.05;2.35;;;;;;;22.86;53.95;97976.44;4487638;31;20155;-80
2022/07/28 01:05:13;;;;;;;6.05;2.80;;;;;;;22.80;54.27;97971.75;4487746;31;20084;-80
2022/07/28 01:08:05;;;;;;;7.37;2.90;;;;;;;22.13;56.69;97970.09;4486048;32;20155;-81
2022/07/28 01:10:35;;;;;;;7.18;2.80;;;;;;;22.19;57.48;97969.53;4486517;32;20085;-81
2022/07/28 01:13:10;;;;;;;5.65;2.45;;;;;;;22.47;56.62;97976.53;4486166;32;20163;-82
2022/07/28 01:15:40;;;;;;;6.10;3.00;;;;;;;23.18;54.82;97972.56;4486296;32;20112;-81
2022/07/28 01:18:19;;;;;;;6.93;3.05;;;;;;;23.36;54.09;97976.06;4487665;31;20085;-81
2022/07/28 01:20:50;;;;;;;6.45;3.05;;;;;;;23.90;52.60;97976.97;4487101;31;20077;-82
2022/07/28 01:23:56;;;;;;;7.30;3.00;;;;;;;24.40;50.51;97977.25;4486262;32;20096;-81
2022/07/28 01:26:50;;;;;;;7.60;3.00;;;;;;;23.28;53.54;97979.44;4487316;32;20207;-82
2022/07/28 01:29:46;;;;;;;7.30;3.25;;;;;;;23.28;53.46;97974.16;4487216;31;20533;-81
2022/07/28 01:32:18;;;;;;;7.57;3.17;;;;;;;22.51;56.58;97964.75;4487567;31;20085;-81
2022/07/28 01:35:11;;;;;;;6.68;3.10;;;;;;;23.24;54.00;97972.00;4485876;32;20115;-82
2022/07/28 01:37:42;;;;;;;6.78;2.78;;;;;;;23.81;52.25;97972.63;4477404;32;20164;-80
2022/07/28 01:40:11;;;;;;;7.07;2.90;;;;;;;23.94;52.33;97973.09;4487330;31;20159;-81
2022/07/28 01:42:40;;;;;;;6.47;3.20;;;;;;;23.68;52.71;97973.00;4486912;31;20474;-82
2022/07/28 01:45:09;;;;;;;6.87;3.20;;;;;;;24.12;51.09;97963.34;4486137;32;20122;-81
2022/07/28 01:47:36;;;;;;;7.93;3.30;;;;;;;24.12;51.43;97962.50;4487026;31;20153;-81
2022/07/28 01:50:06;;;;;;;8.98;3.22;;;;;;;24.44;50.52;97964.59;4485700;32;20129;-82
2022/07/28 01:52:33;;;;;;;7.28;3.35;;;;;;;24.42;50.59;97956.84;4473143;32;20150;-81
2022/07/28 01:55:01;;;;;;;12.48;3.75;;;;;;;24.73;49.87;97959.00;4486935;31;20164;-81
2022/07/28 01:57:30;;;;;;;7.15;3.50;;;;;;;23.57;53.20;97960.00;4486208;31;20112;-81
2022/07/28 01:59:59;;;;;;;9.60;3.67;;;;;;;22.96;55.68;97958.81;4487093;31;20159;-80
2022/07/28 02:02:27;;;;;;;7.20;3.40;;;;;;;23.69;53.53;97958.84;4486811;31;20095;-82
2022/07/28 02:04:56;;;;;;;8.10;3.80;;;;;;;25.49;48.70;97956.34;4485833;32;20127;-81
2022/07/28 02:07:24;;;;;;;6.90;3.53;;;;;;;27.04;45.00;97959.81;4486000;32;20132;-81
2022/07/28 02:09:52;;;;;;;8.23;3.22;;;;;;;27.54;43.47;97955.06;4485559;32;20092;-82
2022/07/28 02:12:19;;;;;;;8.05;3.47;;;;;;;27.05;43.97;97961.47;4485854;32;20073;-81
2022/07/28 02:14:48;;;;;;;7.45;3.00;;;;;;;27.65;42.75;97967.97;4486782;31;20119;-81
2022/07/28 02:17:17;;;;;;;6.47;3.10;;;;;;;27.44;43.32;97968.56;4485415;32;20122;-82
2022/07/28 02:19:45;;;;;;;7.57;3.30;;;;;;;27.06;44.32;97967.56;4485736;32;20102;-81
2022/07/28 02:22:13;;;;;;;7.10;3.22;;;;;;;27.39;43.86;97974.37;4485794;32;20073;-81
2022/07/28 02:24:40;;;;;;;7.72;3.33;;;;;;;27.51;43.20;97974.81;4486404;31;20497;-81
2022/07/28 02:27:12;;;;;;;7.68;3.22;;;;;;;27.01;44.06;97975.16;4485639;32;20160;-81
2022/07/28 02:29:44;;;;;;;6.72;3.12;;;;;;;27.19;43.80;97973.13;4486874;31;20151;-81
2022/07/28 02:32:26;;;;;;;7.82;3.45;;;;;;;28.16;41.59;97982.34;4486437;31;20152;-82
2022/07/28 02:35:37;;;;;;;5.87;3.12;;;;;;;27.82;41.96;97985.41;4485555;32;20099;-81
2022/07/28 02:38:19;;;;;;;9.68;3.10;;;;;;;28.26;41.12;97987.41;4485199;32;20126;-82
2022/07/28 02:40:48;;;;;;;8.40;3.33;;;;;;;27.97;41.73;97988.16;4486451;31;20183;-81
2022/07/28 02:43:20;;;;;;;6.70;3.50;;;;;;;28.08;41.09;97989.56;4485256;32;20110;-80
2022/07/28 02:45:51;;;;;;;7.35;3.00;;;;;;;27.62;42.02;97997.44;4486075;31;20475;-82
2022/07/28 02:48:21;;;;;;;6.18;3.08;;;;;;;27.58;42.62;97993.50;4485047;32;20100;-81
2022/07/28 02:50:49;;;;;;;6.82;2.92;;;;;;;27.84;41.62;97998.50;4486552;31;20100;-81
2022/07/28 02:53:16;;;;;;;8.73;3.92;;;;;;;28.00;41.65;98005.53;4471869;32;20122;-81
2022/07/28 02:55:46;;;;;;;8.27;3.55;;;;;;;27.57;42.49;98015.69;4486231;31;20088;-81
2022/07/28 02:58:15;;;;;;;9.77;3.95;;;;;;;27.93;41.94;98003.56;4485304;32;20101;-81
2022/07/28 03:00:42;;;;;;;7.20;3.65;;;;;;;26.83;44.96;98006.34;4485016;32;20092;-81
2022/07/28 03:03:09;;;;;;;7.55;3.65;;;;;;;27.32;43.85;98007.84;4485110;32;20098;-81
2022/07/28 03:05:39;;;;;;;7.78;4.10;;;;;;;27.47;43.30;98012.44;4484500;32;20726;-82
2022/07/28 03:08:06;;;;;;;7.40;3.50;;;;;;;27.48;43.50;98014.91;4486729;31;20582;-81
2022/07/28 03:10:33;;;;;;;7.57;3.33;;;;;;;27.46;43.80;98018.72;4488479;31;20175;-81
2022/07/28 03:13:02;;;;;;;7.43;3.58;;;;;;;27.62;43.33;98024.75;4488098;31;20108;-82
2022/07/28 03:15:29;;;;;;;8.48;3.78;;;;;;;27.56;44.04;98022.81;4488236;31;20582;-81
2022/07/28 03:17:57;;;;;;;7.45;3.47;;;;;;;28.05;42.13;98027.03;4488388;31;20084;-81
2022/07/28 03:20:24;;;;;;;5.97;3.20;;;;;;;27.93;42.13;98031.91;4486690;32;20092;-82
2022/07/28 03:22:51;;;;;;;6.35;3.15;;;;;;;27.43;42.74;98024.34;4487159;32;20163;-81
2022/07/28 03:25:27;;;;;;;8.98;3.80;;;;;;;27.35;42.86;98039.31;4488321;31;20160;-81
2022/07/28 03:27:55;;;;;;;7.90;3.45;;;;;;;27.63;42.26;98034.34;4487914;31;20443;-82
2022/07/28 03:30:27;;;;;;;7.15;3.22;;;;;;;27.26;43.39;98032.38;4487057;32;20144;-82
2022/07/28 03:32:58;;;;;;;6.85;3.50;;;;;;;27.37;43.23;98028.53;4487189;32;20076;-81
2022/07/28 03:35:26;;;;;;;6.68;3.35;;;;;;;26.93;43.84;98028.97;4487929;31;20096;-81
2022/07/28 03:37:53;;;;;;;7.78;3.60;;;;;;;27.24;43.60;98020.31;4487087;32;20109;-81
2022/07/28 03:40:24;;;;;;;7.43;3.50;;;;;;;26.79;44.98;98027.84;4488126;31;20137;-81
2022/07/28 03:42:52;;;;;;;7.53;4.05;;;;;;;26.89;44.80;98032.94;4487136;32;20161;-81
2022/07/28 03:45:20;;;;;;;8.93;3.70;;;;;;;26.41;46.24;98037.31;4486841;32;20097;-81
2022/07/28 03:47:57;;;;;;;9.02;3.70;;;;;;;26.08;47.46;98040.91;4487539;31;20088;-82
2022/07/28 03:50:25;;;;;;;7.85;3.70;;;;;;;26.45;47.13;98040.44;4487051;32;20093;-81
2022/07/28 03:52:53;;;;;;;9.63;4.00;;;;;;;26.78;46.13;98034.13;4488168;31;20092;-81
2022/07/28 03:55:20;;;;;;;9.90;4.07;;;;;;;26.88;45.78;98036.59;4487515;31;20144;-82
2022/07/28 03:57:47;;;;;;;8.93;3.95;;;;;;;26.57;46.49;98047.06;4488122;31;20140;-81
2022/07/28 04:00:15;;;;;;;8.02;3.80;;;;;;;26.18;47.38;98046.88;4487987;31;20073;-81
2022/07/28 04:02:43;;;;;;;9.43;3.70;;;;;;;26.49;46.64;98049.72;4487699;31;20092;-82
2022/07/28 04:05:11;;;;;;;7.80;3.58;;;;;;;26.58;46.11;98054.00;4487877;31;20100;-81
2022/07/28 04:07:39;;;;;;;9.27;4.03;;;;;;;26.46;46.62;98044.75;4488003;31;20339;-81
2022/07/28 04:10:07;;;;;;;7.10;3.70;;;;;;;26.20;47.22;98047.53;4487681;31;20109;-81
2022/07/28 04:12:55;;;;;;;8.88;4.00;;;;;;;26.56;46.41;98053.34;4488107;31;20072;-81
2022/07/28 04:15:22;;;;;;;;;;;;;;;26.63;46.37;98056.97;4488132;31;20167;-81
2022/07/28 04:17:53;;;;;;;;;;;;;;;26.49;45.69;98052.38;4488009;31;19979;-81
2022/07/28 04:20:21;;;;;;;6.65;3.50;;;;;;;26.71;44.97;98056.97;4487388;31;20291;-81
2022/07/28 04:22:49;;;;;;;8.07;3.42;;;;;;;26.60;45.45;98062.63;4487596;31;20092;-82
2022/07/28 04:25:17;;;;;;;8.52;3.67;;;;;;;26.32;46.25;98064.72;4487676;31;20107;-81
2022/07/28 04:27:45;;;;;;;8.65;3.62;;;;;;;26.37;46.93;98069.53;4487977;31;20118;-80
2022/07/28 04:30:16;;;;;;;9.18;3.47;;;;;;;26.51;46.76;98063.59;4487588;31;20084;-81
2022/07/28 04:32:44;;;;;;;8.95;3.50;;;;;;;26.79;46.91;98064.06;4480948;31;223523;-81
2022/07/28 04:35:12;;;;;;;9.43;3.30;;;;;;;26.70;47.13;98062.44;4487648;31;20172;-81
2022/07/28 04:37:43;;;;;;;6.65;3.37;;;;;;;27.15;46.15;98056.59;4487500;31;20129;-82
2022/07/28 04:40:12;;;;;;;6.85;3.40;;;;;;;27.42;45.47;98063.28;4487771;31;20155;-80
2022/07/28 04:42:39;;;;;;;6.93;3.40;;;;;;;27.26;46.19;98064.19;4487690;31;20103;-81
2022/07/28 04:45:07;;;;;;;7.45;3.40;;;;;;;27.95;44.54;98065.19;4487125;32;20136;-81
2022/07/28 04:47:35;;;;;;;7.07;3.30;;;;;;;28.73;42.81;98066.00;4487478;31;20093;-81
2022/07/28 04:50:06;;;;;;;7.93;3.50;;;;;;;28.88;42.44;98055.38;4487726;32;20100;-81
2022/07/28 04:52:33;;;;;;;8.23;3.78;;;;;;;29.41;41.49;98062.31;4487294;31;20523;-81
2022/07/28 04:55:00;;;;;;;11.10;3.58;;;;;;;29.69;41.05;98057.16;4487621;31;20096;-81
2022/07/28 04:57:28;;;;;;;7.68;3.45;;;;;;;30.55;39.54;98066.06;4487682;31;20824;-81
2022/07/28 04:59:57;;;;;;;8.07;3.42;;;;;;;31.16;38.39;98062.81;4487408;31;20450;-82
2022/07/28 05:02:24;;;;;;;7.62;3.47;;;;;;;31.84;37.19;98058.50;4487508;31;20076;-80
2022/07/28 05:04:51;;;;;;;6.37;3.42;;;;;;;32.07;36.60;98058.97;4487107;32;20148;-82
2022/07/28 05:07:18;;;;;;;6.93;3.53;;;;;;;32.35;36.25;98060.69;4487548;31;20127;-81
2022/07/28 05:09:45;;;;;;;7.22;3.70;;;;;;;32.79;35.19;98068.91;4487563;31;20118;-81
2022/07/28 05:12:12;;;;;;;8.68;3.72;;;;;;;32.66;35.49;98068.09;4487236;31;20151;-82
2022/07/28 05:14:39;;;;;;;7.90;3.62;;;;;;;32.88;35.22;98066.88;4487438;31;20113;-81
2022/07/28 05:17:06;;;;;;;7.00;3.60;;;;;;;32.87;35.33;98073.25;4487480;31;20470;-81
2022/07/28 05:19:35;;;;;;;10.27;4.03;;;;;;;32.75;35.62;98074.84;4487152;32;20759;-82
2022/07/28 05:22:02;;;;;;;8.52;3.83;;;;;;;32.52;36.25;98068.09;4487377;31;20144;-81
2022/07/28 05:24:29;;;;;;;8.15;3.70;;;;;;;32.37;36.90;98078.16;4487479;31;20126;-81
2022/07/28 05:26:56;;;;;;;7.03;3.50;;;;;;;33.04;35.94;98084.31;4487069;32;20119;-82
2022/07/28 05:29:23;;;;;;;7.40;3.72;;;;;;;33.58;34.44;98076.00;4487439;31;20501;-81
2022/07/28 05:32:00;;;;;;;7.53;3.67;;;;;;;32.87;36.08;98078.59;4486360;31;20402;-81
2022/07/28 05:34:42;;;;;;;7.18;3.40;;;;;;;33.71;34.42;98083.16;4486916;31;20092;-82
2022/07/28 05:37:09;;;;;;;7.93;3.60;;;;;;;33.04;35.49;98082.47;4487273;32;20092;-81
2022/07/28 05:39:36;;;;;;;7.35;3.83;;;;;;;33.64;35.00;98083.19;4487409;32;20104;-81
2022/07/28 05:42:03;;;;;;;8.18;3.47;;;;;;;34.35;33.36;98090.25;4487028;31;20487;-81
2022/07/28 05:44:30;;;;;;;7.57;3.65;;;;;;;33.99;33.60;98082.84;4487108;31;20112;-81
2022/07/28 05:47:04;;;;;;;8.13;4.18;;;;;;;33.58;34.15;98078.66;4486788;31;20105;-82
2022/07/28 05:49:31;;;;;;;8.90;3.75;;;;;;;33.57;34.63;98090.41;4487384;31;20088;-81
2022/07/28 05:52:00;;;;;;;9.27;4.15;;;;;;;35.21;32.19;98100.31;4484531;31;20477;-81
2022/07/28 05:54:27;;;;;;;7.68;3.80;;;;;;;36.06;30.76;98095.03;4484043;31;20093;-81
2022/07/28 05:56:54;;;;;;;7.85;3.67;;;;;;;36.05;30.82;98101.44;4485453;31;20163;-80
2022/07/28 05:59:21;;;;;;;7.93;3.33;;;;;;;35.39;31.21;98098.69;4486435;31;20104;-80
2022/07/28 06:01:48;;;;;;;7.95;4.03;;;;;;;34.83;32.29;98099.59;4485856;31;20103;-80
2022/07/28 06:04:15;;;;;;;9.18;3.80;;;;;;;35.13;31.85;98100.59;4486215;31;20168;-80
2022/07/28 06:06:58;;;;;;;7.78;4.18;;;;;;;34.91;31.40;98100.19;4485483;32;20126;-80
2022/07/28 06:09:25;;;;;;;10.55;4.20;;;;;;;34.01;33.32;98107.53;4485903;31;20085;-80
2022/07/28 06:11:52;;;;;;;8.07;4.43;;;;;;;33.16;35.13;98111.25;4486101;31;20091;-80
2022/07/28 06:14:19;;;;;;;8.55;4.60;;;;;;;32.34;36.36;98102.59;4486559;31;20138;-84
2022/07/28 06:16:49;;;;;;;9.35;4.37;;;;;;;31.67;37.55;98103.31;4485257;31;20146;-82
2022/07/28 06:19:17;;;;;;;8.38;4.43;;;;;;;31.76;37.38;98106.69;4486391;31;20167;-82
2022/07/28 06:21:46;;;;;;;7.53;4.10;;;;;;;31.63;37.75;98110.09;4484319;32;20081;-82
2022/07/28 06:24:13;;;;;;;7.53;4.00;;;;;;;31.47;38.22;98111.22;4485950;31;20107;-82
2022/07/28 06:26:41;;;;;;;7.28;3.75;;;;;;;30.74;38.72;98108.03;4485635;31;20118;-83
2022/07/28 06:29:11;;;;;;;7.22;3.85;;;;;;;30.30;39.84;98112.69;4486026;31;20143;-83
2022/07/28 06:31:38;;;;;;;8.07;3.85;;;;;;;31.20;38.30;98114.75;4485812;31;20080;-83
2022/07/28 06:34:06;;;;;;;8.35;4.30;;;;;;;30.66;38.08;98110.84;4485946;32;20104;-83
2022/07/28 06:36:33;;;;;;;10.70;4.25;;;;;;;29.58;39.92;98114.31;4485245;31;20133;-85
2022/07/28 06:39:00;;;;;;;7.10;3.97;;;;;;;30.34;38.48;98106.81;4485848;31;20123;-85
2022/07/28 06:41:27;;;;;;;7.30;3.80;;;;;;;29.69;39.78;98101.56;4485382;31;20080;-85
2022/07/28 06:43:54;;;;;;;7.00;3.92;;;;;;;28.95;40.55;98101.50;4487662;31;20367;-85
2022/07/28 06:46:21;;;;;;;7.47;4.10;;;;;;;29.42;40.29;98105.66;4487774;31;20144;-85
2022/07/28 06:48:48;;;;;;;8.32;4.28;;;;;;;29.29;40.50;98101.81;4487459;31;20167;-84
2022/07/28 06:51:18;;;;;;;7.97;4.18;;;;;;;29.65;40.27;98099.25;4486856;31;20084;-84
2022/07/28 06:53:47;;;;;;;9.60;4.25;;;;;;;31.33;37.07;98115.66;4487653;31;20158;-84
2022/07/28 06:56:15;;;;;;;7.30;3.87;;;;;;;31.13;37.21;98117.34;4487499;31;20100;-84
2022/07/28 06:58:42;;;;;;;8.35;4.22;;;;;;;30.64;37.44;98120.88;4486691;31;20386;-83
2022/07/28 07:01:16;;;;;;;7.55;3.80;;;;;;;30.74;37.69;98118.69;4487662;32;20102;-83
2022/07/28 07:03:43;;;;;;;7.47;4.10;;;;;;;30.98;37.57;98119.28;4487746;31;20100;-80
2022/07/28 07:06:10;;;;;;;8.70;4.72;;;;;;;31.85;36.01;98122.31;4486848;31;20434;-84
2022/07/28 07:08:40;;;;;;;7.80;4.18;;;;;;;31.86;37.15;98123.97;4485067;31;20172;-84
2022/07/28 07:11:10;;;;;;;7.47;4.03;;;;;;;31.65;36.53;98124.88;4486885;31;20103;-83
2022/07/28 07:13:37;;;;;;;7.62;4.10;;;;;;;32.13;35.63;98126.75;4486945;31;20164;-83
2022/07/28 07:16:04;;;;;;;8.18;4.25;;;;;;;32.69;34.16;98123.78;4486616;32;20168;-83
2022/07/28 07:18:31;;;;;;;10.02;4.55;;;;;;;33.45;33.11;98126.03;4486830;32;20157;-83
2022/07/28 07:20:58;;;;;;;9.10;4.37;;;;;;;33.61;33.35;98130.94;4487572;32;20160;-83
2022/07/28 07:23:25;;;;;;;7.43;4.07;;;;;;;33.69;32.90;98120.00;4487284;31;20149;-83
2022/07/28 07:25:52;;;;;;;7.25;3.95;;;;;;;33.59;32.76;98128.44;4487296;31;20510;-84
2022/07/28 07:28:19;;;;;;;8.43;4.35;;;;;;;32.46;34.49;98119.66;4486865;31;20103;-84
2022/07/28 07:30:47;;;;;;;7.75;3.90;;;;;;;34.22;31.83;98133.16;4487491;31;20127;-84
2022/07/28 07:33:14;;;;;;;9.30;3.70;;;;;;;34.26;30.77;98129.03;4487247;31;20144;-82
2022/07/28 07:35:41;;;;;;;7.93;3.80;;;;;;;34.35;30.08;98121.53;4487727;31;20100;-84
2022/07/28 07:38:08;;;;;;;5.18;3.10;;;;;;;34.49;29.96;98128.50;4486648;31;20096;-84
2022/07/28 07:40:36;;;;;;;6.85;3.83;;;;;;;33.10;31.66;98118.25;4485898;32;20073;-84
2022/07/28 07:43:04;;;;;;;7.05;3.15;;;;;;;34.41;31.16;98128.75;4487250;32;20168;-83
2022/07/28 07:45:33;;;;;;;7.32;3.55;;;;;;;31.87;32.33;98125.59;4487434;31;20140;-83
2022/07/28 07:48:01;;;;;;;8.18;4.10;;;;;;;33.10;31.73;98126.28;4485120;32;20097;-84
2022/07/28 07:50:28;;;;;;;9.45;4.53;;;;;;;31.77;36.77;98122.47;4487245;31;20548;-83
2022/07/28 07:52:55;;;;;;;6.93;3.83;;;;;;;33.16;34.97;98127.28;4487159;31;20215;-83
2022/07/28 07:55:22;;;;;;;7.65;4.28;;;;;;;32.88;34.41;98133.69;4486527;31;20128;-83
2022/07/28 07:57:49;;;;;;;10.35;4.15;;;;;;;33.13;33.39;98130.38;4486182;31;20156;-83
2022/07/28 08:00:17;;;;;;;8.38;3.80;;;;;;;34.03;31.18;98134.09;4486852;31;20092;-83
2022/07/28 08:02:56;;;;;;;7.72;3.75;;;;;;;33.49;32.34;98136.09;4486916;31;20456;-83
2022/07/28 08:05:23;;;;;;;7.40;3.70;;;;;;;33.81;31.37;98134.34;4487237;32;20088;-83
2022/07/28 08:08:03;;;;;;;6.32;3.33;;;;;;;32.57;33.08;98128.09;4486384;31;20085;-83
2022/07/28 08:10:31;;;;;;;7.60;3.33;;;;;;;34.43;30.02;98130.19;4487055;31;20080;-82
2022/07/28 08:12:58;;;;;;;6.55;3.30;;;;;;;34.14;30.11;98138.78;4486978;31;20118;-83
2022/07/28 08:15:25;;;;;;;7.20;3.53;;;;;;;32.63;31.92;98129.94;4485350;32;20120;-82
2022/07/28 08:18:01;;;;;;;7.55;3.60;;;;;;;33.29;30.84;98135.31;4486550;31;20167;-82
2022/07/28 08:20:49;;;;;;;8.80;3.50;;;;;;;34.01;29.96;98136.97;4475418;31;20085;-82
2022/07/28 08:23:16;;;;;;;9.25;3.75;;;;;;;34.97;28.58;98144.88;4486405;31;20730;-82
2022/07/28 08:25:48;;;;;;;7.93;3.45;;;;;;;35.18;28.44;98143.66;4487060;31;20135;-82
2022/07/28 08:28:15;;;;;;;6.62;3.47;;;;;;;36.01;26.49;98137.84;4485981;31;20502;-83
2022/07/28 08:30:42;;;;;;;6.93;3.60;;;;;;;35.80;26.54;98146.34;4487249;31;20128;-84
2022/07/28 08:33:09;;;;;;;7.68;3.37;;;;;;;35.48;27.21;98145.66;4486998;31;20708;-83
2022/07/28 08:35:36;;;;;;;6.30;3.35;;;;;;;36.29;26.08;98142.63;4486775;31;20427;-83
2022/07/28 08:38:03;;;;;;;6.57;3.40;;;;;;;32.94;29.86;98129.34;4486228;32;20168;-83
2022/07/28 08:40:34;;;;;;;6.57;3.22;;;;;;;34.46;27.99;98137.81;4485870;32;20081;-83
2022/07/28 08:43:33;;;;;;;7.53;3.30;;;;;;;34.13;28.32;98137.94;4486524;31;20110;-83
2022/07/28 08:46:05;;;;;;;7.28;3.03;;;;;;;35.44;26.52;98141.78;4487055;31;20118;-83
2022/07/28 08:48:33;;;;;;;9.50;3.47;;;;;;;35.10;27.34;98135.91;4486110;31;20084;-82
2022/07/28 08:51:03;;;;;;;7.00;3.35;;;;;;;35.81;26.44;98127.31;4485403;32;20171;-83
2022/07/28 08:53:31;;;;;;;7.87;3.40;;;;;;;35.47;26.98;98130.59;4486752;31;20104;-82
2022/07/28 08:56:14;;;;;;;7.90;3.30;;;;;;;35.08;27.64;98124.56;4487146;31;20458;-83
2022/07/28 08:58:42;;;;;;;6.22;3.20;;;;;;;35.82;26.53;98128.94;4486609;31;20115;-83
2022/07/28 09:01:09;;;;;;;8.10;3.78;;;;;;;34.56;28.70;98126.63;4472686;32;20130;-82
2022/07/28 09:03:38;;;;;;;5.70;3.15;;;;;;;35.45;26.55;98127.34;4485231;32;20108;-82
2022/07/28 09:06:06;;;;;;;8.27;3.60;;;;;;;36.02;26.81;98127.91;4486995;31;20096;-81
2022/07/28 09:08:34;;;;;;;7.60;3.37;;;;;;;36.05;25.48;98122.94;4486083;31;20176;-81
2022/07/28 09:11:01;;;;;;;8.00;3.28;;;;;;;36.28;25.75;98124.88;4486427;32;20469;-82
2022/07/28 09:13:28;;;;;;;6.53;3.25;;;;;;;36.49;25.31;98126.28;4486629;32;20112;-81
2022/07/28 09:15:56;;;;;;;6.18;3.30;;;;;;;36.11;25.24;98123.88;4487051;31;20100;-84
2022/07/28 09:18:23;;;;;;;5.87;3.40;;;;;;;36.71;24.84;98127.38;4485541;31;20091;-82
2022/07/28 09:20:50;;;;;;;7.28;3.17;;;;;;;36.69;25.15;98121.41;4485440;32;20102;-82
2022/07/28 09:23:17;;;;;;;6.15;3.00;;;;;;;37.35;24.10;98131.09;4486675;31;21025;-82
2022/07/28 09:26:08;;;;;;;6.55;3.37;;;;;;;37.67;23.32;98129.88;4486580;31;20092;-83
2022/07/28 09:28:48;;;;;;;5.78;3.37;;;;;;;36.57;24.32;98114.34;4486098;31;20126;-83
2022/07/28 09:31:16;;;;;;;6.40;3.37;;;;;;;35.72;25.66;98123.28;4486345;31;20085;-82
2022/07/28 09:33:59;;;;;;;7.47;3.37;;;;;;;37.06;23.90;98122.03;4486379;31;20157;-83
2022/07/28 09:36:40;;;;;;;8.20;3.25;;;;;;;37.49;23.44;98114.69;4486293;31;20096;-83
2022/07/28 09:39:07;;;;;;;9.70;4.37;;;;;;;37.90;22.90;98119.06;4486422;31;20446;-83
2022/07/28 09:41:54;;;;;;;6.00;3.08;;;;;;;37.41;23.54;98113.16;4485472;32;20465;-83
2022/07/28 09:44:23;;;;;;;7.68;3.12;;;;;;;34.06;27.03;98104.22;4486366;31;20104;-83
2022/07/28 09:46:50;;;;;;;7.87;3.35;;;;;;;34.60;26.47;98105.56;4485314;31;20163;-83
2022/07/28 09:49:17;;;;;;;6.65;3.10;;;;;;;35.87;25.09;98096.09;4486683;31;20093;-83
2022/07/28 09:52:05;;;;;;;7.55;3.45;;;;;;;36.04;25.09;98098.97;4485233;32;20077;-84
2022/07/28 09:54:32;;;;;;;9.00;3.37;;;;;;;36.36;24.47;98099.56;4485800;31;20144;-83
2022/07/28 09:57:09;;;;;;;8.77;3.65;;;;;;;36.72;24.01;98104.81;4485207;31;20485;-83
2022/07/28 09:59:41;;;;;;;8.18;3.25;;;;;;;35.57;25.89;98099.53;4486290;32;20511;-84
2022/07/28 10:02:11;;;;;;;6.75;3.12;;;;;;;36.68;24.29;98100.94;4486384;31;20439;-83
2022/07/28 10:04:41;;;;;;;6.15;3.33;;;;;;;36.29;24.81;98094.28;4485973;31;20131;-82
2022/07/28 10:07:10;;;;;;;8.50;3.50;;;;;;;34.86;26.44;98099.16;4485371;31;20438;-82
2022/07/28 10:09:37;;;;;;;10.00;3.45;;;;;;;35.04;25.83;98102.75;4486351;31;20159;-82
2022/07/28 10:12:22;;;;;;;6.07;2.97;;;;;;;34.16;27.03;98091.19;4486346;31;20510;-83
2022/07/28 10:14:50;;;;;;;6.70;3.10;;;;;;;33.45;28.18;98085.91;4485676;31;20506;-82
2022/07/28 10:17:27;;;;;;;6.62;3.42;;;;;;;34.48;26.85;98092.06;4484909;31;20164;-83
2022/07/28 10:19:56;;;;;;;;;;;;;;;35.75;25.44;98089.84;4486373;31;20179;-82
2022/07/28 10:22:27;;;;;;;6.57;3.40;;;;;;;36.09;24.96;98091.06;4485595;31;20281;-83
2022/07/28 10:24:55;;;;;;;7.53;3.40;;;;;;;36.08;24.54;98090.25;4485428;31;20168;-83
2022/07/28 10:27:24;;;;;;;7.95;3.45;;;;;;;35.79;25.42;98094.50;4484747;31;20095;-83
2022/07/28 10:29:56;;;;;;;8.45;3.30;;;;;;;36.40;24.49;98093.53;4485773;31;20151;-83
2022/07/28 10:32:24;;;;;;;6.60;3.25;;;;;;;37.64;22.94;98093.44;4486009;31;20140;-83
2022/07/28 10:35:12;;;;;;;8.70;3.33;;;;;;;37.25;23.38;98082.41;4485149;31;20512;-83
2022/07/28 10:38:04;;;;;;;7.07;3.35;;;;;;;36.50;23.91;98085.72;4485430;31;20171;-83
2022/07/28 10:40:39;;;;;;;6.62;3.25;;;;;;;37.45;23.70;98083.94;4485779;31;20171;-83
2022/07/28 10:43:07;;;;;;;7.28;3.33;;;;;;;37.20;24.38;98076.06;4485729;31;20514;-83
2022/07/28 10:45:34;;;;;;;7.70;3.30;;;;;;;37.81;22.70;98078.22;4485631;31;20148;-83
2022/07/28 10:48:21;;;;;;;7.28;3.22;;;;;;;36.95;23.94;98077.16;4484792;31;20463;-83
2022/07/28 10:50:50;;;;;;;6.82;3.10;;;;;;;36.79;24.09;98070.59;4485546;32;20111;-83
2022/07/28 10:53:30;;;;;;;8.80;3.62;;;;;;;36.63;24.17;98076.62;4485514;31;20104;-83
2022/07/28 10:56:02;;;;;;;7.32;3.45;;;;;;;37.25;24.03;98077.00;4485165;31;20156;-83
2022/07/28 10:58:41;;;;;;;6.97;3.58;;;;;;;37.46;23.49;98074.78;4484632;32;20149;-83
2022/07/28 11:01:35;;;;;;;8.43;3.28;;;;;;;37.70;23.65;98070.97;4484351;32;20110;-83
2022/07/28 11:04:46;;;;;;;10.13;3.10;;;;;;;37.25;23.69;98070.81;4485451;31;20423;-83
2022/07/28 11:07:18;;;;;;;6.97;3.47;;;;;;;36.41;25.26;98076.34;4484671;31;20105;-83
2022/07/28 11:09:46;;;;;;;6.70;3.42;;;;;;;37.03;24.26;98070.59;4484034;32;20176;-83
2022/07/28 11:12:16;;;;;;;7.30;3.35;;;;;;;37.45;23.80;98075.84;4484324;32;20458;-83
2022/07/28 11:14:43;;;;;;;5.35;3.12;;;;;;;37.30;23.87;98073.63;4485193;31;20175;-83
2022/07/28 11:17:17;;;;;;;7.62;3.50;;;;;;;37.89;23.68;98068.94;4482880;32;20096;-83
2022/07/28 11:19:54;;;;;;;8.27;3.87;;;;;;;38.27;22.62;98068.31;4485210;32;20088;-83
2022/07/28 11:22:41;;;;;;;6.93;3.42;;;;;;;37.30;23.70;98071.75;4485103;32;20167;-83
2022/07/28 11:25:09;;;;;;;6.95;3.28;;;;;;;36.98;24.13;98065.09;4484801;31;20132;-82
2022/07/28 11:27:50;;;;;;;7.03;3.60;;;;;;;36.84;24.25;98064.53;4482986;32;20108;-82
2022/07/28 11:30:17;;;;;;;7.82;3.55;;;;;;;37.35;23.85;98063.00;4486899;31;20104;-83
2022/07/28 11:32:53;;;;;;;6.80;3.67;;;;;;;37.73;24.31;98062.41;4487061;31;20434;-82
2022/07/28 11:35:25;;;;;;;8.93;3.37;;;;;;;37.63;24.07;98062.22;4487376;31;20076;-81
2022/07/28 11:38:01;;;;;;;8.45;3.20;;;;;;;37.08;24.94;98051.88;4486734;31;20114;-79
2022/07/28 11:40:28;;;;;;;11.15;3.37;;;;;;;38.85;23.09;98063.63;4487667;31;20115;-78
2022/07/28 11:43:19;;;;;;;6.55;3.30;;;;;;;38.26;22.84;98058.59;4487209;31;20088;-79
2022/07/28 11:46:05;;;;;;;7.32;3.25;;;;;;;38.36;22.76;98057.97;4487401;32;20118;-77
2022/07/28 11:48:37;;;;;;;8.77;3.40;;;;;;;36.17;25.30;98058.53;4486451;31;20115;-76
2022/07/28 11:51:04;;;;;;;7.55;3.55;;;;;;;36.71;24.72;98054.78;4487386;31;20093;-78